Time;durP1;ratioP1;P1;durP2;ratioP2;P2;SDS_P1;SDS_P2;PMS_P1;PMS_P2;Temp;Humidity;BMP_temperature;BMP_pressure;BME280_temperature;BME280_humidity;BME280_pressure;Samples;Min_cycle;Max_cycle;Signal;HPM_P1;HPM_P2
2021/12/13 00:02:24;;;;;;;9.90;6.25;;;6.60;99.90;;;;;;5116280;27;20436;-51
2021/12/13 00:04:56;;;;;;;13.70;7.15;;;6.50;99.90;;;;;;5129400;27;20408;-52
2021/12/13 00:07:28;;;;;;;18.25;10.68;;;6.60;99.90;;;;;;5112466;27;20403;-52
2021/12/13 00:09:56;;;;;;;14.25;6.82;;;6.70;99.90;;;;;;5117093;27;20376;-51
2021/12/13 00:12:30;;;;;;;15.65;6.65;;;6.70;99.90;;;;;;5117246;27;20412;-51
2021/12/13 00:14:58;;;;;;;16.33;9.40;;;6.60;99.90;;;;;;5128463;27;20510;-51
2021/12/13 00:17:27;;;;;;;13.25;7.15;;;6.60;99.90;;;;;;5121808;27;20834;-51
2021/12/13 00:20:13;;;;;;;13.10;6.00;;;6.60;99.90;;;;;;5120281;27;20453;-51
2021/12/13 00:22:46;;;;;;;10.90;5.80;;;6.70;99.90;;;;;;5129711;27;20818;-51
2021/12/13 00:25:20;;;;;;;11.60;6.03;;;6.70;99.90;;;;;;5114751;27;20405;-52
2021/12/13 00:27:55;;;;;;;16.55;7.25;;;6.90;99.90;;;;;;5122347;27;20379;-51
2021/12/13 00:30:26;;;;;;;11.40;6.70;;;7.00;99.90;;;;;;5115563;27;20377;-51
2021/12/13 00:33:06;;;;;;;13.90;7.30;;;6.90;99.90;;;;;;5128682;27;20440;-51
2021/12/13 00:35:46;;;;;;;15.82;7.40;;;6.90;99.90;;;;;;5124561;27;20378;-51
2021/12/13 00:38:13;;;;;;;14.82;8.10;;;6.90;99.90;;;;;;5131873;27;20439;-52
2021/12/13 00:40:46;;;;;;;16.85;8.40;;;6.90;99.90;;;;;;5127197;27;20485;-51
2021/12/13 00:43:21;;;;;;;17.20;11.30;;;6.70;99.90;;;;;;5122436;27;20390;-51
2021/12/13 00:46:14;;;;;;;16.85;9.07;;;6.70;99.90;;;;;;5117564;27;20468;-51
2021/12/13 00:48:44;;;;;;;16.00;7.90;;;6.70;99.90;;;;;;5090220;28;20422;-51
2021/12/13 00:51:20;;;;;;;20.27;8.95;;;6.70;99.90;;;;;;5092086;28;20457;-52
2021/12/13 00:53:48;;;;;;;16.60;8.60;;;6.80;99.90;;;;;;5092492;28;20378;-51
2021/12/13 00:56:52;;;;;;;18.05;9.40;;;6.80;99.90;;;;;;5091431;28;20370;-51
2021/12/13 00:59:37;;;;;;;15.88;8.75;;;6.80;99.90;;;;;;5091467;28;20413;-52
2021/12/13 01:02:39;;;;;;;17.58;9.20;;;5.90;99.90;;;;;;5103393;28;20457;-56
2021/12/13 01:05:05;;;;;;;19.83;10.10;;;6.90;99.90;;;;;;5103424;28;20388;-54
2021/12/13 01:07:33;;;;;;;16.33;8.73;;;7.00;99.90;;;;;;5112630;28;20803;-51
2021/12/13 01:10:08;;;;;;;19.10;10.20;;;6.90;99.90;;;;;;5112448;28;20492;-51
2021/12/13 01:12:34;;;;;;;17.40;9.68;;;7.00;99.90;;;;;;5112654;28;20399;-51
2021/12/13 01:15:10;;;;;;;15.13;9.40;;;6.90;99.90;;;;;;5110820;28;20436;-52
2021/12/13 01:17:52;;;;;;;18.35;9.27;;;6.90;99.90;;;;;;5112219;28;20783;-51
2021/12/13 01:20:57;;;;;;;16.00;9.68;;;6.90;99.90;;;;;;5111410;28;20487;-51
2021/12/13 01:23:40;;;;;;;16.85;9.30;;;6.90;99.90;;;;;;5111273;28;20632;-51
2021/12/13 01:28:44;;;;;;;18.23;9.77;;;6.90;99.90;;;;;;5112340;28;20384;-51
2021/12/13 01:31:19;;;;;;;15.75;9.82;;;6.70;99.90;;;;;;5111145;28;20710;-52
2021/12/13 01:33:46;;;;;;;20.50;10.30;;;6.80;99.90;;;;;;5110548;28;20381;-52
2021/12/13 01:36:24;;;;;;;18.20;9.70;;;6.80;99.90;;;;;;5109889;28;20441;-51
2021/12/13 01:38:55;;;;;;;16.08;9.73;;;6.80;99.90;;;;;;5111984;28;20376;-54
2021/12/13 01:41:35;;;;;;;18.97;10.60;;;6.80;99.90;;;;;;5111138;28;20400;-51
2021/12/13 01:44:11;;;;;;;18.23;10.30;;;6.70;99.90;;;;;;5111786;28;20452;-56
2021/12/13 01:46:42;;;;;;;18.17;10.50;;;6.70;99.90;;;;;;5111835;28;20377;-51
2021/12/13 01:49:08;;;;;;;18.50;9.73;;;6.70;99.90;;;;;;5111054;28;20368;-51
2021/12/13 01:51:35;;;;;;;17.77;10.13;;;6.80;99.90;;;;;;5111802;28;20381;-52
2021/12/13 01:54:06;;;;;;;18.00;10.23;;;6.90;99.90;;;;;;5111140;28;20384;-56
2021/12/13 01:56:57;;;;;;;21.33;10.20;;;7.00;99.90;;;;;;5111145;28;20372;-51
2021/12/13 01:59:50;;;;;;;17.77;10.00;;;7.00;99.90;;;;;;5110872;28;20376;-52
2021/12/13 02:02:36;;;;;;;17.40;9.97;;;7.00;99.90;;;;;;5110590;28;20397;-51
2021/12/13 02:05:11;;;;;;;21.55;10.75;;;7.00;99.90;;;;;;5111104;28;20463;-57
2021/12/13 02:07:50;;;;;;;20.52;11.07;;;7.00;99.90;;;;;;5111182;28;20373;-52
2021/12/13 02:10:29;;;;;;;21.17;10.50;;;7.00;99.90;;;;;;5110218;28;20376;-52
2021/12/13 02:13:00;;;;;;;22.25;11.10;;;7.00;99.90;;;;;;5111217;28;20457;-51
2021/12/13 02:18:17;;;;;;;25.87;12.47;;;6.90;99.90;;;;;;5110360;28;20464;-52
2021/12/13 02:20:52;;;;;;;24.50;12.40;;;7.00;99.90;;;;;;5111072;28;20488;-51
2021/12/13 02:23:20;;;;;;;28.02;13.40;;;7.00;99.90;;;;;;5110558;28;20860;-51
2021/12/13 02:25:49;;;;;;;23.40;12.30;;;7.00;99.90;;;;;;5111022;28;20372;-51
2021/12/13 02:28:22;;;;;;;21.40;12.48;;;7.00;99.90;;;;;;5110176;28;20380;-52
2021/12/13 02:30:54;;;;;;;24.05;11.77;;;6.90;99.90;;;;;;5110003;28;20396;-51
2021/12/13 02:33:43;;;;;;;24.30;12.05;;;7.00;99.90;;;;;;5096059;28;20844;-51
2021/12/13 02:36:14;;;;;;;23.17;12.05;;;6.90;99.90;;;;;;5082830;28;20401;-52
2021/12/13 02:38:41;;;;;;;24.02;12.05;;;6.90;99.90;;;;;;5089990;28;20395;-52
2021/12/13 02:41:08;;;;;;;22.35;11.52;;;6.80;99.90;;;;;;5098980;28;20438;-52
2021/12/13 02:43:40;;;;;;;23.93;11.47;;;6.90;99.90;;;;;;5110806;27;20391;-52
2021/12/13 02:46:07;;;;;;;24.42;10.55;;;6.90;99.90;;;;;;5110022;28;20912;-56
2021/12/13 02:48:44;;;;;;;21.83;10.35;;;6.70;99.90;;;;;;5110544;28;20452;-52
2021/12/13 02:51:20;;;;;;;22.73;10.30;;;6.70;99.90;;;;;;5109235;28;20421;-52
2021/12/13 02:53:49;;;;;;;21.42;10.63;;;6.70;99.90;;;;;;5110398;28;20385;-52
2021/12/13 02:56:17;;;;;;;21.20;10.20;;;6.70;99.90;;;;;;5109566;28;20412;-52
2021/12/13 02:58:43;;;;;;;20.95;10.40;;;6.70;99.90;;;;;;5110448;28;20384;-51
2021/12/13 03:01:22;;;;;;;24.70;11.40;;;6.60;99.90;;;;;;5099451;28;20386;-51
2021/12/13 03:03:54;;;;;;;26.95;11.20;;;6.80;99.90;;;;;;5090201;28;20398;-52
2021/12/13 03:06:24;;;;;;;27.73;11.50;;;6.80;99.90;;;;;;5089350;28;20378;-52
2021/12/13 03:09:00;;;;;;;26.20;11.20;;;6.80;99.90;;;;;;5089997;28;20866;-51
2021/12/13 03:11:32;;;;;;;28.00;11.43;;;6.80;99.90;;;;;;5088200;28;20457;-52
2021/12/13 03:14:10;;;;;;;26.60;12.00;;;6.70;99.90;;;;;;5091357;28;20406;-52
2021/12/13 03:17:09;;;;;;;24.65;11.90;;;6.80;99.90;;;;;;5108758;28;20741;-52
2021/12/13 03:19:52;;;;;;;27.00;12.88;;;6.90;99.90;;;;;;5105617;28;20392;-52
2021/12/13 03:22:37;;;;;;;29.13;12.10;;;6.80;99.90;;;;;;5108733;28;20803;-51
2021/12/13 03:25:20;;;;;;;26.85;12.98;;;7.00;99.90;;;;;;5105200;28;20407;-52
2021/12/13 03:28:24;;;;;;;27.90;12.52;;;7.00;99.90;;;;;;5098378;28;20382;-52
2021/12/13 03:31:07;;;;;;;24.50;11.80;;;7.00;99.90;;;;;;5089465;28;20385;-51
2021/12/13 03:33:40;;;;;;;27.95;12.75;;;7.00;99.90;;;;;;5089360;28;20382;-51
2021/12/13 03:36:13;;;;;;;28.08;13.05;;;7.00;99.90;;;;;;5089093;28;20378;-56
2021/12/13 03:38:48;;;;;;;26.73;13.00;;;6.90;99.90;;;;;;5089456;28;20371;-52
2021/12/13 03:41:20;;;;;;;32.60;12.25;;;7.00;99.90;;;;;;5088849;28;20482;-51
2021/12/13 03:43:55;;;;;;;33.33;13.07;;;7.00;99.90;;;;;;5089047;28;20394;-52
2021/12/13 03:46:23;;;;;;;24.25;12.13;;;7.10;99.90;;;;;;5088377;28;20457;-51
2021/12/13 03:48:51;;;;;;;25.73;12.35;;;7.10;99.90;;;;;;5089194;28;20876;-52
2021/12/13 03:51:21;;;;;;;24.13;12.00;;;7.10;99.90;;;;;;5098227;28;20396;-52
2021/12/13 03:53:51;;;;;;;26.77;12.10;;;7.10;99.90;;;;;;5109585;28;20433;-51
2021/12/13 03:56:36;;;;;;;30.03;12.80;;;7.20;99.90;;;;;;5106744;28;20403;-51
2021/12/13 03:59:09;;;;;;;25.35;12.15;;;7.20;99.90;;;;;;5109561;28;20438;-52
2021/12/13 04:01:40;;;;;;;26.23;12.13;;;7.30;99.90;;;;;;5109631;28;20412;-52
2021/12/13 04:04:13;;;;;;;30.65;12.35;;;7.30;99.90;;;;;;5109265;28;20376;-56
2021/12/13 04:06:52;;;;;;;22.08;11.13;;;7.40;99.90;;;;;;5109855;28;20387;-52
2021/12/13 04:09:26;;;;;;;26.02;12.05;;;7.40;99.90;;;;;;5108724;28;20407;-52
2021/12/13 04:11:56;;;;;;;29.80;12.02;;;7.30;99.90;;;;;;5109456;28;20756;-52
2021/12/13 04:14:29;;;;;;;25.38;11.00;;;7.20;99.90;;;;;;5089131;28;20479;-52
2021/12/13 04:17:19;;;;;;;26.95;11.40;;;7.30;99.90;;;;;;5089266;28;20508;-52
2021/12/13 04:19:56;;;;;;;28.02;12.40;;;7.30;99.90;;;;;;5089102;28;20838;-52
2021/12/13 04:22:29;;;;;;;26.27;11.52;;;7.30;99.90;;;;;;5088375;28;20888;-52
2021/12/13 04:24:59;;;;;;;26.05;12.45;;;7.40;99.90;;;;;;5089082;28;20410;-52
2021/12/13 04:27:29;;;;;;;28.00;11.47;;;7.50;99.90;;;;;;5087086;28;20593;-52
2021/12/13 04:30:04;;;;;;;21.85;11.95;;;7.50;99.90;;;;;;5096164;28;20453;-52
2021/12/13 04:32:33;;;;;;;24.17;10.95;;;7.50;99.90;;;;;;5105882;28;20416;-52
2021/12/13 04:35:04;;;;;;;21.77;10.50;;;7.40;99.90;;;;;;5107456;28;20417;-52
2021/12/13 04:37:35;;;;;;;21.45;11.27;;;7.40;99.90;;;;;;5107071;28;20395;-52
2021/12/13 04:40:09;;;;;;;21.63;10.60;;;7.40;99.90;;;;;;5112627;28;20472;-52
2021/12/13 04:42:35;;;;;;;23.27;11.35;;;7.40;99.90;;;;;;5111112;28;20861;-52
2021/12/13 04:45:17;;;;;;;23.25;10.80;;;7.30;99.90;;;;;;5112559;28;20410;-52
2021/12/13 04:48:10;;;;;;;22.38;11.10;;;7.40;99.90;;;;;;5111620;28;20387;-52
2021/12/13 04:51:10;;;;;;;23.38;10.90;;;7.50;99.90;;;;;;5101708;28;20533;-52
2021/12/13 04:53:38;;;;;;;23.92;10.60;;;7.50;99.90;;;;;;5112451;28;20376;-53
2021/12/13 04:56:11;;;;;;;23.98;11.15;;;7.40;99.90;;;;;;5111671;28;20369;-53
2021/12/13 04:58:44;;;;;;;24.42;11.05;;;7.30;99.90;;;;;;5112158;28;20877;-52
2021/12/13 05:01:12;;;;;;;22.73;11.27;;;7.30;99.90;;;;;;5108954;28;20408;-53
2021/12/13 05:03:50;;;;;;;22.70;11.13;;;7.40;99.90;;;;;;5114228;27;20391;-52
2021/12/13 05:06:20;;;;;;;22.23;11.30;;;7.40;99.90;;;;;;5122334;27;20375;-52
2021/12/13 05:08:49;;;;;;;24.87;11.33;;;7.20;99.90;;;;;;5121890;27;20833;-52
2021/12/13 05:11:15;;;;;;;22.50;11.13;;;7.30;99.90;;;;;;5123292;27;20398;-52
2021/12/13 05:13:52;;;;;;;21.25;11.35;;;7.10;99.90;;;;;;5125603;27;20437;-52
2021/12/13 05:16:27;;;;;;;25.23;11.90;;;7.20;99.90;;;;;;5125883;27;20383;-53
2021/12/13 05:18:55;;;;;;;24.40;11.93;;;7.20;99.90;;;;;;5128171;27;20432;-52
2021/12/13 05:21:40;;;;;;;24.67;11.48;;;7.20;99.90;;;;;;5131712;27;20390;-52
2021/12/13 05:24:13;;;;;;;23.40;11.00;;;7.20;99.90;;;;;;5098935;27;20382;-56
2021/12/13 05:26:44;;;;;;;23.40;10.97;;;7.20;99.90;;;;;;5122621;27;20907;-52
2021/12/13 05:29:31;;;;;;;25.27;12.27;;;7.20;99.90;;;;;;5123256;27;20848;-56
2021/12/13 05:32:00;;;;;;;24.77;11.70;;;7.20;99.90;;;;;;5115502;27;20475;-52
2021/12/13 05:34:35;;;;;;;26.13;11.63;;;7.20;99.90;;;;;;5124991;27;20376;-52
2021/12/13 05:37:03;;;;;;;22.85;12.18;;;7.20;99.90;;;;;;5123414;27;20419;-52
2021/12/13 05:39:29;;;;;;;23.87;12.10;;;7.20;99.90;;;;;;5116116;27;21126;-52
2021/12/13 05:42:03;;;;;;;25.60;12.27;;;7.30;99.90;;;;;;5128710;27;20406;-52
2021/12/13 05:44:36;;;;;;;26.00;12.43;;;7.20;99.90;;;;;;5116128;27;21038;-51
2021/12/13 05:47:06;;;;;;;22.63;12.25;;;7.30;99.90;;;;;;5120375;27;20837;-51
2021/12/13 05:49:40;;;;;;;21.45;11.70;;;7.30;99.90;;;;;;5126466;27;20867;-52
2021/12/13 05:52:10;;;;;;;22.75;11.70;;;7.30;99.90;;;;;;5098610;27;20446;-56
2021/12/13 05:54:42;;;;;;;23.40;12.30;;;7.30;99.90;;;;;;5124087;27;20377;-54
2021/12/13 05:57:17;;;;;;;25.95;13.00;;;7.30;99.90;;;;;;5101811;27;20394;-57
2021/12/13 05:59:59;;;;;;;24.20;11.90;;;7.20;99.90;;;;;;5115458;27;20433;-52
2021/12/13 06:02:57;;;;;;;24.38;13.00;;;7.10;99.90;;;;;;5119638;27;20869;-52
2021/12/13 06:05:31;;;;;;;25.70;12.80;;;7.00;99.90;;;;;;5121272;27;20401;-52
2021/12/13 06:08:08;;;;;;;26.30;12.93;;;7.00;99.90;;;;;;5124414;27;20456;-52
2021/12/13 06:10:45;;;;;;;24.30;12.60;;;7.10;99.90;;;;;;5122638;27;20866;-52
2021/12/13 06:13:23;;;;;;;26.17;12.70;;;7.20;99.90;;;;;;5121093;27;20395;-53
2021/12/13 06:15:49;;;;;;;23.13;12.68;;;7.20;99.90;;;;;;5120479;27;20442;-53
2021/12/13 06:18:29;;;;;;;23.23;11.73;;;7.20;99.90;;;;;;5122030;27;20382;-52
2021/12/13 06:21:27;;;;;;;24.75;12.65;;;7.20;99.90;;;;;;5122925;27;20585;-52
2021/12/13 06:23:54;;;;;;;24.35;12.70;;;7.30;99.90;;;;;;5111067;27;20389;-53
2021/12/13 06:26:27;;;;;;;23.25;13.38;;;7.30;99.90;;;;;;5109431;28;20379;-52
2021/12/13 06:28:59;;;;;;;24.05;12.07;;;7.30;99.90;;;;;;5108316;28;20425;-52
2021/12/13 06:31:38;;;;;;;25.58;12.55;;;7.40;99.90;;;;;;5109762;28;20368;-52
2021/12/13 06:34:11;;;;;;;27.02;12.57;;;7.30;99.90;;;;;;5110511;28;20517;-52
2021/12/13 06:36:52;;;;;;;25.70;13.25;;;7.30;99.90;;;;;;5103688;28;20428;-52
2021/12/13 06:39:28;;;;;;;25.08;12.77;;;7.40;99.90;;;;;;5109953;28;20399;-52
2021/12/13 06:42:04;;;;;;;29.15;13.13;;;7.40;99.90;;;;;;5093841;28;20497;-53
2021/12/13 06:44:36;;;;;;;22.63;12.90;;;7.40;99.90;;;;;;5089796;28;20527;-53
2021/12/13 06:47:10;;;;;;;23.73;12.48;;;7.40;99.90;;;;;;5090051;28;20482;-52
2021/12/13 06:49:40;;;;;;;24.45;12.60;;;7.30;99.90;;;;;;5090322;28;20382;-52
2021/12/13 06:52:06;;;;;;;23.13;12.13;;;7.40;99.90;;;;;;5090003;28;20444;-53
2021/12/13 06:54:55;;;;;;;25.00;12.70;;;7.30;99.90;;;;;;5089686;28;20879;-52
2021/12/13 06:57:29;;;;;;;26.75;13.00;;;7.40;99.90;;;;;;5088760;28;20429;-53
2021/12/13 07:00:00;;;;;;;22.60;12.93;;;7.30;99.90;;;;;;5090090;28;20482;-52
2021/12/13 07:02:46;;;;;;;27.10;12.00;;;7.30;99.90;;;;;;5102577;28;20946;-52
2021/12/13 07:05:15;;;;;;;22.83;11.98;;;7.40;99.90;;;;;;5102131;28;20404;-52
2021/12/13 07:07:59;;;;;;;21.92;11.95;;;7.40;99.90;;;;;;5108685;28;20418;-52
2021/12/13 07:10:32;;;;;;;22.70;12.25;;;7.50;99.90;;;;;;5108577;28;20380;-53
2021/12/13 07:13:20;;;;;;;25.53;12.37;;;7.50;99.90;;;;;;5109725;28;20420;-52
2021/12/13 07:15:47;;;;;;;25.58;12.93;;;7.40;99.90;;;;;;5108310;28;20492;-52
2021/12/13 07:18:18;;;;;;;23.48;11.82;;;7.30;99.90;;;;;;5108951;28;20892;-52
2021/12/13 07:20:58;;;;;;;24.65;12.65;;;7.30;99.90;;;;;;5103975;28;20398;-52
2021/12/13 07:23:24;;;;;;;21.37;11.80;;;7.20;99.90;;;;;;5101392;28;20396;-53
2021/12/13 07:25:52;;;;;;;23.70;12.30;;;7.30;99.90;;;;;;5089188;28;20508;-52
2021/12/13 07:28:36;;;;;;;20.52;11.35;;;8.00;99.90;;;;;;5088614;28;20386;-52
2021/12/13 07:31:08;;;;;;;25.83;13.20;;;7.30;99.90;;;;;;5088840;28;20389;-54
2021/12/13 07:33:40;;;;;;;23.95;11.55;;;7.30;99.90;;;;;;5088899;28;20378;-53
2021/12/13 07:36:24;;;;;;;22.05;12.65;;;7.40;99.90;;;;;;5089502;28;20388;-52
2021/12/13 07:39:02;;;;;;;27.02;11.55;;;7.20;99.90;;;;;;5094541;28;20467;-53
2021/12/13 07:41:45;;;;;;;24.95;11.82;;;7.30;99.90;;;;;;5108851;28;20407;-54
2021/12/13 07:44:34;;;;;;;22.58;12.15;;;8.30;99.90;;;;;;5107916;28;20412;-57
2021/12/13 07:47:04;;;;;;;22.65;12.00;;;7.60;99.90;;;;;;5102734;28;20408;-53
2021/12/13 07:49:34;;;;;;;21.87;11.40;;;7.60;99.90;;;;;;5108952;28;20708;-54
2021/12/13 07:52:02;;;;;;;21.67;11.55;;;7.70;99.90;;;;;;5109478;28;20387;-53
2021/12/13 07:54:35;;;;;;;25.80;11.85;;;7.70;99.90;;;;;;5108932;28;20375;-53
2021/12/13 07:57:03;;;;;;;21.77;11.87;;;7.80;99.90;;;;;;5105290;28;20435;-53
2021/12/13 07:59:37;;;;;;;20.40;10.63;;;7.80;99.90;;;;;;5096992;28;20388;-53
2021/12/13 08:02:22;;;;;;;22.10;11.90;;;8.00;99.90;;;;;;5096012;28;20402;-53
2021/12/13 08:05:12;;;;;;;21.98;11.63;;;7.90;99.90;;;;;;5097096;28;20387;-53
2021/12/13 08:07:44;;;;;;;20.83;11.95;;;7.90;99.90;;;;;;5109594;28;20411;-54
2021/12/13 08:10:22;;;;;;;23.05;12.27;;;7.90;99.90;;;;;;5093139;28;20415;-57
2021/12/13 08:12:52;;;;;;;25.92;13.55;;;7.90;99.90;;;;;;5095682;28;20396;-52
2021/12/13 08:15:36;;;;;;;21.33;12.13;;;7.90;99.90;;;;;;5112097;28;20411;-53
2021/12/13 08:18:23;;;;;;;26.20;12.45;;;7.80;99.90;;;;;;5112372;28;20892;-53
2021/12/13 08:20:56;;;;;;;22.15;11.63;;;7.90;99.90;;;;;;5112741;27;20382;-53
2021/12/13 08:23:32;;;;;;;27.33;12.80;;;8.30;99.90;;;;;;5112834;28;20380;-53
2021/12/13 08:26:00;;;;;;;26.27;11.30;;;8.40;99.90;;;;;;5113293;28;20380;-53
2021/12/13 08:28:38;;;;;;;21.60;12.07;;;8.40;99.90;;;;;;5094403;28;20416;-53
2021/12/13 08:31:07;;;;;;;20.20;11.20;;;8.60;99.90;;;;;;5109817;28;20407;-52
2021/12/13 08:33:38;;;;;;;21.48;12.43;;;8.70;99.90;;;;;;5104108;28;21232;-53
2021/12/13 08:36:07;;;;;;;21.48;12.43;;;8.70;99.90;;;;;;5104620;28;20407;-53
2021/12/13 08:38:49;;;;;;;22.38;12.00;;;8.70;99.90;;;;;;5110280;28;20391;-53
2021/12/13 08:41:15;;;;;;;23.83;12.20;;;8.60;99.90;;;;;;5112530;28;20424;-53
2021/12/13 08:43:40;;;;;;;19.37;11.70;;;8.50;99.90;;;;;;5110783;28;20482;-53
2021/12/13 08:46:07;;;;;;;22.10;12.20;;;8.40;99.90;;;;;;5112921;28;20387;-53
2021/12/13 08:48:47;;;;;;;20.65;11.70;;;8.50;99.90;;;;;;5111977;28;20368;-53
2021/12/13 08:51:22;;;;;;;26.57;12.70;;;8.50;99.90;;;;;;5111381;28;20399;-57
2021/12/13 08:54:10;;;;;;;21.83;12.10;;;8.50;99.90;;;;;;5106311;28;20395;-53
2021/12/13 08:56:44;;;;;;;23.15;12.75;;;8.70;99.90;;;;;;5107696;28;20385;-53
2021/12/13 08:59:23;;;;;;;24.90;12.50;;;8.80;99.90;;;;;;5092396;28;20415;-56
2021/12/13 09:02:01;;;;;;;23.90;12.30;;;8.90;99.90;;;;;;5104426;28;20962;-53
2021/12/13 09:04:52;;;;;;;24.75;13.38;;;8.80;99.90;;;;;;5110577;28;20408;-53
2021/12/13 09:07:20;;;;;;;21.07;11.93;;;8.80;99.90;;;;;;5111697;28;20411;-53
2021/12/13 09:09:47;;;;;;;22.60;12.20;;;8.90;99.90;;;;;;5111803;28;20400;-53
2021/12/13 09:12:15;;;;;;;22.23;13.15;;;8.80;99.90;;;;;;5090270;28;20716;-57
2021/12/13 09:14:50;;;;;;;22.75;11.52;;;8.90;99.90;;;;;;5111658;28;20400;-53
2021/12/13 09:17:36;;;;;;;21.67;11.65;;;9.00;99.90;;;;;;5111496;28;20376;-54
2021/12/13 09:20:07;;;;;;;22.33;11.93;;;9.20;99.90;;;;;;5110384;28;20813;-53
2021/12/13 09:22:37;;;;;;;24.20;12.63;;;9.10;99.90;;;;;;5110667;28;20437;-53
2021/12/13 09:25:09;;;;;;;24.58;14.40;;;9.10;99.90;;;;;;5094376;28;20467;-56
2021/12/13 09:27:40;;;;;;;25.80;13.20;;;8.90;99.90;;;;;;5098509;28;20559;-53
2021/12/13 09:30:12;;;;;;;27.58;11.93;;;8.90;99.90;;;;;;5104732;28;20404;-53
2021/12/13 09:33:00;;;;;;;23.90;13.13;;;9.10;99.90;;;;;;5104699;27;20392;-53
2021/12/13 09:35:39;;;;;;;20.73;12.80;;;9.10;99.90;;;;;;5109563;28;20384;-55
2021/12/13 09:38:17;;;;;;;23.55;12.20;;;9.20;99.90;;;;;;5112082;28;20396;-52
2021/12/13 09:40:46;;;;;;;21.63;12.55;;;9.10;99.90;;;;;;5110544;27;20384;-54
2021/12/13 09:43:12;;;;;;;25.25;13.35;;;9.30;99.90;;;;;;5114284;27;20456;-57
2021/12/13 09:45:47;;;;;;;22.33;12.23;;;9.30;99.90;;;;;;5094564;28;20444;-52
2021/12/13 09:48:18;;;;;;;22.80;13.45;;;9.10;99.90;;;;;;5094548;28;20822;-57
2021/12/13 09:50:47;;;;;;;28.45;12.65;;;9.10;99.90;;;;;;5117944;27;20401;-53
2021/12/13 09:53:14;;;;;;;22.80;12.27;;;9.00;99.90;;;;;;5112513;27;20938;-57
2021/12/13 09:55:47;;;;;;;23.15;14.43;;;9.00;99.90;;;;;;5104905;27;20420;-53
2021/12/13 09:58:18;;;;;;;21.30;13.32;;;9.20;99.90;;;;;;5111935;27;20389;-57
2021/12/13 10:01:03;;;;;;;23.52;14.20;;;9.20;99.90;;;;;;5121184;27;20931;-54
2021/12/13 10:03:41;;;;;;;26.65;13.68;;;9.40;99.90;;;;;;5119617;27;20546;-53
2021/12/13 10:06:08;;;;;;;29.02;16.90;;;9.50;99.90;;;;;;5131401;27;20865;-55
2021/12/13 10:09:07;;;;;;;34.40;18.70;;;9.60;99.90;;;;;;5130483;27;20532;-52
2021/12/13 10:12:07;;;;;;;27.95;16.17;;;9.90;99.90;;;;;;5130997;27;20435;-53
2021/12/13 10:14:37;;;;;;;28.00;15.88;;;9.90;99.90;;;;;;5100571;28;20460;-53
2021/12/13 10:17:05;;;;;;;54.33;31.45;;;9.70;99.90;;;;;;5109791;28;20384;-54
2021/12/13 10:19:51;;;;;;;34.80;20.33;;;9.70;99.90;;;;;;5110647;28;20471;-53
2021/12/13 10:22:23;;;;;;;30.80;17.27;;;9.80;99.90;;;;;;5109461;28;20412;-54
2021/12/13 10:25:15;;;;;;;27.73;14.93;;;9.90;99.90;;;;;;5110561;28;20380;-53
2021/12/13 10:27:41;;;;;;;23.67;14.70;;;10.00;99.90;;;;;;5102032;28;20380;-54
2021/12/13 10:30:13;;;;;;;24.85;14.30;;;10.00;99.90;;;;;;5110941;28;20388;-55
2021/12/13 10:32:41;;;;;;;26.98;14.50;;;9.90;99.90;;;;;;5108974;28;20729;-54
2021/12/13 10:35:18;;;;;;;25.02;15.27;;;9.80;99.90;;;;;;5110210;28;20403;-53
2021/12/13 10:37:51;;;;;;;26.50;14.20;;;9.70;99.90;;;;;;5110155;28;20845;-54
2021/12/13 10:40:31;;;;;;;26.10;14.83;;;9.90;99.90;;;;;;5109257;28;20379;-53
2021/12/13 10:43:03;;;;;;;26.77;14.77;;;10.00;99.90;;;;;;5109976;28;20424;-54
2021/12/13 10:45:38;;;;;;;23.98;13.55;;;10.00;99.90;;;;;;5109869;28;20381;-53
2021/12/13 10:48:07;;;;;;;26.30;13.80;;;10.10;99.90;;;;;;5109851;28;20476;-53
2021/12/13 10:50:45;;;;;;;25.45;13.23;;;10.00;99.90;;;;;;5109752;28;20368;-54
2021/12/13 10:53:13;;;;;;;25.50;14.48;;;10.00;99.90;;;;;;5110238;28;20381;-54
2021/12/13 10:55:45;;;;;;;26.17;14.30;;;10.00;99.90;;;;;;5108546;28;20438;-53
2021/12/13 10:58:17;;;;;;;26.73;13.85;;;10.10;99.90;;;;;;5110142;28;20898;-53
2021/12/13 11:00:52;;;;;;;25.90;14.20;;;10.30;99.90;;;;;;5110221;28;20391;-54
2021/12/13 11:03:22;;;;;;;27.03;13.73;;;10.30;99.90;;;;;;5109065;28;20396;-54
2021/12/13 11:05:49;;;;;;;30.13;15.63;;;10.30;99.90;;;;;;5110027;28;20845;-54
2021/12/13 11:08:18;;;;;;;27.55;13.25;;;10.20;99.90;;;;;;5109237;28;20392;-57
2021/12/13 11:10:54;;;;;;;25.75;14.55;;;10.40;99.90;;;;;;5108632;28;20377;-54
2021/12/13 11:13:23;;;;;;;26.73;15.25;;;10.40;99.90;;;;;;5108701;28;20399;-55
2021/12/13 11:15:54;;;;;;;29.27;14.95;;;10.30;99.90;;;;;;5109890;28;20477;-55
2021/12/13 11:18:27;;;;;;;28.52;14.00;;;10.30;99.90;;;;;;5109044;28;20738;-53
2021/12/13 11:21:03;;;;;;;28.27;14.73;;;10.40;99.90;;;;;;5109658;28;20387;-54
2021/12/13 11:23:29;;;;;;;27.23;14.65;;;10.60;99.90;;;;;;5108696;28;21157;-55
2021/12/13 11:26:02;;;;;;;23.90;13.55;;;10.60;99.90;;;;;;5109392;28;20377;-54
2021/12/13 11:28:31;;;;;;;27.00;14.27;;;10.50;99.90;;;;;;5109552;28;20380;-54
2021/12/13 11:30:58;;;;;;;27.90;14.50;;;10.60;99.90;;;;;;5109752;28;20834;-54
2021/12/13 11:33:41;;;;;;;24.15;12.93;;;10.80;99.90;;;;;;5108802;28;20844;-55
2021/12/13 11:36:07;;;;;;;21.90;13.05;;;10.80;99.90;;;;;;5109857;28;20372;-55
2021/12/13 11:39:07;;;;;;;27.43;14.07;;;10.70;99.90;;;;;;5108686;28;20395;-54
2021/12/13 11:41:56;;;;;;;24.93;13.43;;;10.70;99.90;;;;;;5108719;28;20633;-55
2021/12/13 11:44:53;;;;;;;25.27;14.00;;;10.50;99.90;;;;;;5109337;28;20392;-55
2021/12/13 11:47:40;;;;;;;28.30;14.10;;;10.60;99.90;;;;;;5108470;28;20384;-55
2021/12/13 11:50:24;;;;;;;29.63;17.67;;;10.60;99.90;;;;;;5109765;28;20383;-54
2021/12/13 11:53:27;;;;;;;18.08;10.80;;;10.60;99.90;;;;;;5109442;28;20380;-54
2021/12/13 11:56:11;;;;;;;24.63;13.68;;;10.80;99.90;;;;;;5109604;28;20372;-54
2021/12/13 11:59:12;;;;;;;21.33;12.32;;;10.90;99.90;;;;;;5108851;28;20372;-54
2021/12/13 12:02:03;;;;;;;21.10;12.15;;;11.00;99.90;;;;;;5108216;28;20848;-54
2021/12/13 12:05:06;;;;;;;21.83;12.30;;;11.00;99.90;;;;;;5108710;28;20400;-54
2021/12/13 12:07:41;;;;;;;19.23;11.10;;;11.10;99.90;;;;;;5108799;28;20365;-54
2021/12/13 12:10:58;;;;;;;19.45;12.10;;;11.20;99.90;;;;;;5109650;28;20380;-56
2021/12/13 12:14:05;;;;;;;18.45;10.90;;;11.00;99.90;;;;;;5073491;28;20396;-54
2021/12/13 12:16:43;;;;;;;21.52;11.38;;;11.00;99.90;;;;;;5077770;28;20412;-54
2021/12/13 12:19:15;;;;;;;18.80;10.40;;;10.80;99.90;;;;;;5109338;28;20372;-55
2021/12/13 12:21:49;;;;;;;17.63;10.60;;;11.00;99.90;;;;;;5108681;28;20410;-55
2021/12/13 12:24:17;;;;;;;18.25;10.40;;;11.10;99.90;;;;;;5109153;28;20381;-58
2021/12/13 12:26:48;;;;;;;18.40;10.38;;;11.20;99.90;;;;;;5108940;28;20376;-55
2021/12/13 12:29:22;;;;;;;17.23;8.88;;;11.10;99.90;;;;;;5108939;28;20372;-55
2021/12/13 12:31:57;;;;;;;17.63;9.00;;;11.30;99.90;;;;;;5109015;28;20380;-54
2021/12/13 12:34:23;;;;;;;14.25;8.23;;;11.50;99.90;;;;;;5108194;28;20360;-53
2021/12/13 12:36:58;;;;;;;13.48;7.57;;;11.50;99.90;;;;;;5109042;28;20423;-52
2021/12/13 12:39:38;;;;;;;13.93;7.63;;;11.50;99.90;;;;;;5107939;28;20415;-53
2021/12/13 12:42:25;;;;;;;13.40;7.85;;;11.40;99.90;;;;;;5108777;28;20403;-54
2021/12/13 12:44:54;;;;;;;14.90;6.70;;;11.10;99.90;;;;;;5108768;28;20385;-54
2021/12/13 12:47:35;;;;;;;16.10;7.90;;;11.00;99.90;;;;;;5108123;28;20373;-54
2021/12/13 12:50:22;;;;;;;16.73;10.00;;;11.10;99.90;;;;;;5107745;28;20445;-56
2021/12/13 12:52:59;;;;;;;17.48;10.25;;;11.00;99.90;;;;;;5108928;28;20387;-55
2021/12/13 12:55:40;;;;;;;19.08;9.82;;;11.00;99.90;;;;;;5108248;28;20858;-54
2021/12/13 12:58:18;;;;;;;17.63;7.85;;;11.00;99.90;;;;;;5110031;28;20406;-54
2021/12/13 13:00:45;;;;;;;17.40;8.50;;;11.00;99.90;;;;;;5107123;28;20746;-54
2021/12/13 13:03:23;;;;;;;18.85;9.48;;;10.80;99.90;;;;;;5110908;27;20424;-54
2021/12/13 13:05:50;;;;;;;17.80;9.60;;;10.90;99.90;;;;;;5112445;28;20377;-54
2021/12/13 13:08:44;;;;;;;15.25;9.27;;;10.90;99.90;;;;;;5108845;28;20384;-58
2021/12/13 13:11:29;;;;;;;16.27;8.70;;;10.90;99.90;;;;;;5109207;28;20420;-55
2021/12/13 13:14:12;;;;;;;16.85;8.20;;;10.90;99.90;;;;;;5111224;28;20441;-55
2021/12/13 13:17:02;;;;;;;15.10;8.65;;;10.70;99.90;;;;;;5111288;28;20377;-54
2021/12/13 13:19:39;;;;;;;16.55;9.32;;;10.80;99.90;;;;;;5103460;28;20491;-55
2021/12/13 13:22:17;;;;;;;16.73;8.15;;;10.70;99.90;;;;;;5111785;27;20415;-55
2021/12/13 13:24:52;;;;;;;13.00;7.95;;;10.80;99.90;;;;;;5111518;28;20380;-54
2021/12/13 13:27:23;;;;;;;12.88;6.80;;;10.80;99.90;;;;;;5109602;28;20388;-58